sensor_id;sensor_type;location;lat;lon;timestamp;pressure;altitude;pressure_sealevel;temperature;humidity
51289;BME280;37372;52.294;5.152;2023-03-15T00:00:42;101135.19;;;1.71;87.25
51289;BME280;37372;52.294;5.152;2023-03-15T00:03:11;101136.34;;;1.60;87.29
51289;BME280;37372;52.294;5.152;2023-03-15T00:05:48;101136.69;;;1.57;87.03
51289;BME280;37372;52.294;5.152;2023-03-15T00:08:16;101138.19;;;1.52;87.09
51289;BME280;37372;52.294;5.152;2023-03-15T00:10:47;101149.16;;;1.50;87.32
51289;BME280;37372;52.294;5.152;2023-03-15T00:13:14;101140.88;;;1.44;86.56
51289;BME280;37372;52.294;5.152;2023-03-15T00:15:51;101140.88;;;1.44;86.99
51289;BME280;37372;52.294;5.152;2023-03-15T00:18:19;101153.50;;;1.35;86.63
51289;BME280;37372;52.294;5.152;2023-03-15T00:20:48;101151.94;;;1.24;87.10
51289;BME280;37372;52.294;5.152;2023-03-15T00:23:16;101155.81;;;1.22;86.87
51289;BME280;37372;52.294;5.152;2023-03-15T00:25:50;101165.25;;;1.18;87.43
51289;BME280;37372;52.294;5.152;2023-03-15T00:28:16;101159.66;;;1.11;87.52
51289;BME280;37372;52.294;5.152;2023-03-15T00:31:02;101160.13;;;1.06;87.62
51289;BME280;37372;52.294;5.152;2023-03-15T00:33:30;101168.41;;;1.05;87.66
51289;BME280;37372;52.294;5.152;2023-03-15T00:36:01;101158.44;;;1.05;87.82
51289;BME280;37372;52.294;5.152;2023-03-15T00:38:29;101172.97;;;1.04;88.14
51289;BME280;37372;52.294;5.152;2023-03-15T00:40:57;101176.34;;;1.06;88.09
51289;BME280;37372;52.294;5.152;2023-03-15T00:43:23;101179.88;;;1.07;88.55
51289;BME280;37372;52.294;5.152;2023-03-15T00:45:54;101172.97;;;1.04;88.32
51289;BME280;37372;52.294;5.152;2023-03-15T00:48:21;101175.50;;;1.06;88.45
51289;BME280;37372;52.294;5.152;2023-03-15T00:51:16;101181.22;;;1.03;87.97
51289;BME280;37372;52.294;5.152;2023-03-15T00:53:48;101179.38;;;1.03;88.36
51289;BME280;37372;52.294;5.152;2023-03-15T00:56:21;101182.38;;;1.00;88.22
51289;BME280;37372;52.294;5.152;2023-03-15T00:58:47;101176.31;;;0.98;88.61
51289;BME280;37372;52.294;5.152;2023-03-15T01:01:21;101187.75;;;0.92;87.97
51289;BME280;37372;52.294;5.152;2023-03-15T01:03:49;101197.06;;;0.98;88.60
51289;BME280;37372;52.294;5.152;2023-03-15T01:06:18;101198.38;;;0.94;88.54
51289;BME280;37372;52.294;5.152;2023-03-15T01:08:50;101204.47;;;0.96;88.97
51289;BME280;37372;52.294;5.152;2023-03-15T01:11:19;101200.91;;;0.95;88.73
51289;BME280;37372;52.294;5.152;2023-03-15T01:13:54;101205.47;;;0.95;88.94
51289;BME280;37372;52.294;5.152;2023-03-15T01:16:19;101204.97;;;0.91;89.01
51289;BME280;37372;52.294;5.152;2023-03-15T01:18:50;101204.13;;;0.91;89.14
51289;BME280;37372;52.294;5.152;2023-03-15T01:21:17;101207.50;;;0.93;88.99
51289;BME280;37372;52.294;5.152;2023-03-15T01:23:42;101216.28;;;0.95;89.60
51289;BME280;37372;52.294;5.152;2023-03-15T01:26:11;101213.13;;;0.99;89.61
51289;BME280;37372;52.294;5.152;2023-03-15T01:28:39;101216.31;;;1.03;89.34
51289;BME280;37372;52.294;5.152;2023-03-15T01:31:07;101225.81;;;1.07;89.61
51289;BME280;37372;52.294;5.152;2023-03-15T01:33:35;101220.09;;;1.10;89.44
51289;BME280;37372;52.294;5.152;2023-03-15T01:36:05;101222.47;;;1.13;89.44
51289;BME280;37372;52.294;5.152;2023-03-15T01:38:32;101234.66;;;1.17;89.32
51289;BME280;37372;52.294;5.152;2023-03-15T01:41:03;101232.66;;;1.19;89.66
51289;BME280;37372;52.294;5.152;2023-03-15T01:43:30;101238.22;;;1.18;89.45
51289;BME280;37372;52.294;5.152;2023-03-15T01:51:53;101247.75;;;1.04;89.30
51289;BME280;37372;52.294;5.152;2023-03-15T01:54:41;101245.53;;;0.99;89.49
51289;BME280;37372;52.294;5.152;2023-03-15T01:57:12;101248.00;;;0.93;89.27
51289;BME280;37372;52.294;5.152;2023-03-15T01:59:51;101249.41;;;0.97;89.37
51289;BME280;37372;52.294;5.152;2023-03-15T02:02:27;101248.69;;;0.95;89.40
51289;BME280;37372;52.294;5.152;2023-03-15T02:05:01;101262.53;;;0.92;89.43
51289;BME280;37372;52.294;5.152;2023-03-15T02:07:31;101257.44;;;0.89;89.34
51289;BME280;37372;52.294;5.152;2023-03-15T02:10:09;101261.13;;;0.88;89.66
51289;BME280;37372;52.294;5.152;2023-03-15T02:12:40;101265.16;;;0.84;89.52
51289;BME280;37372;52.294;5.152;2023-03-15T02:15:09;101267.72;;;0.85;89.91
51289;BME280;37372;52.294;5.152;2023-03-15T02:17:42;101272.94;;;0.87;89.85
51289;BME280;37372;52.294;5.152;2023-03-15T02:23:06;101281.91;;;0.69;89.40
51289;BME280;37372;52.294;5.152;2023-03-15T02:28:35;101288.88;;;0.54;89.29
51289;BME280;37372;52.294;5.152;2023-03-15T02:31:19;101289.56;;;0.56;89.97
51289;BME280;37372;52.294;5.152;2023-03-15T02:33:50;101295.91;;;0.65;90.27
51289;BME280;37372;52.294;5.152;2023-03-15T02:36:24;101292.03;;;0.67;90.16
51289;BME280;37372;52.294;5.152;2023-03-15T02:38:51;101297.28;;;0.69;89.91
51289;BME280;37372;52.294;5.152;2023-03-15T02:41:23;101301.16;;;0.66;89.59
51289;BME280;37372;52.294;5.152;2023-03-15T02:43:53;101300.97;;;0.68;89.63
51289;BME280;37372;52.294;5.152;2023-03-15T02:46:30;101303.50;;;0.69;89.46
51289;BME280;37372;52.294;5.152;2023-03-15T02:48:58;101304.38;;;0.70;89.52
51289;BME280;37372;52.294;5.152;2023-03-15T02:51:27;101310.59;;;0.70;89.32
51289;BME280;37372;52.294;5.152;2023-03-15T02:53:54;101318.72;;;0.70;89.41
51289;BME280;37372;52.294;5.152;2023-03-15T02:56:25;101317.88;;;0.70;89.07
51289;BME280;37372;52.294;5.152;2023-03-15T02:58:53;101319.03;;;0.67;89.07
51289;BME280;37372;52.294;5.152;2023-03-15T03:01:19;101332.53;;;0.67;89.49
51289;BME280;37372;52.294;5.152;2023-03-15T03:03:46;101333.53;;;0.66;89.35
51289;BME280;37372;52.294;5.152;2023-03-15T03:06:24;101335.84;;;0.61;88.83
51289;BME280;37372;52.294;5.152;2023-03-15T03:08:50;101337.88;;;0.59;89.09
51289;BME280;37372;52.294;5.152;2023-03-15T03:11:23;101351.34;;;0.59;89.00
51289;BME280;37372;52.294;5.152;2023-03-15T03:13:48;101345.97;;;0.59;88.86
51289;BME280;37372;52.294;5.152;2023-03-15T03:16:32;101356.88;;;0.58;88.71
51289;BME280;37372;52.294;5.152;2023-03-15T03:18:59;101359.06;;;0.54;88.83
51289;BME280;37372;52.294;5.152;2023-03-15T03:21:29;101356.97;;;0.48;88.66
51289;BME280;37372;52.294;5.152;2023-03-15T03:23:57;101362.13;;;0.41;88.87
51289;BME280;37372;52.294;5.152;2023-03-15T03:26:32;101371.00;;;0.34;89.11
51289;BME280;37372;52.294;5.152;2023-03-15T03:29:01;101373.97;;;0.31;89.13
51289;BME280;37372;52.294;5.152;2023-03-15T03:31:28;101387.78;;;0.28;89.26
51289;BME280;37372;52.294;5.152;2023-03-15T03:33:56;101390.63;;;0.26;89.29
51289;BME280;37372;52.294;5.152;2023-03-15T03:36:34;101390.16;;;0.31;89.30
51289;BME280;37372;52.294;5.152;2023-03-15T03:38:59;101403.50;;;0.32;89.16
51289;BME280;37372;52.294;5.152;2023-03-15T03:41:29;101402.13;;;0.28;89.05
51289;BME280;37372;52.294;5.152;2023-03-15T03:43:54;101407.97;;;0.23;88.84
51289;BME280;37372;52.294;5.152;2023-03-15T03:46:36;101409.13;;;0.21;89.31
51289;BME280;37372;52.294;5.152;2023-03-15T03:49:02;101424.75;;;0.17;89.19
51289;BME280;37372;52.294;5.152;2023-03-15T03:51:31;101422.34;;;0.14;89.14
51289;BME280;37372;52.294;5.152;2023-03-15T03:54:00;101421.25;;;0.07;88.84
51289;BME280;37372;52.294;5.152;2023-03-15T03:56:34;101429.63;;;0.04;89.06
51289;BME280;37372;52.294;5.152;2023-03-15T03:59:01;101420.16;;;0.00;89.20
51289;BME280;37372;52.294;5.152;2023-03-15T04:01:31;101423.13;;;-0.03;89.10
51289;BME280;37372;52.294;5.152;2023-03-15T04:04:00;101424.81;;;-0.02;89.35
51289;BME280;37372;52.294;5.152;2023-03-15T04:06:35;101432.06;;;-0.03;89.07
51289;BME280;37372;52.294;5.152;2023-03-15T04:09:04;101434.59;;;-0.01;89.28
51289;BME280;37372;52.294;5.152;2023-03-15T04:11:33;101444.13;;;-0.07;88.85
51289;BME280;37372;52.294;5.152;2023-03-15T04:14:00;101454.06;;;-0.07;89.12
51289;BME280;37372;52.294;5.152;2023-03-15T04:16:36;101463.00;;;-0.07;89.22
51289;BME280;37372;52.294;5.152;2023-03-15T04:19:06;101460.19;;;-0.05;89.07
51289;BME280;37372;52.294;5.152;2023-03-15T04:21:37;101454.81;;;-0.05;89.24
51289;BME280;37372;52.294;5.152;2023-03-15T04:24:04;101466.13;;;-0.02;89.27
51289;BME280;37372;52.294;5.152;2023-03-15T04:26:38;101469.28;;;-0.06;89.09
51289;BME280;37372;52.294;5.152;2023-03-15T04:29:03;101471.41;;;-0.10;88.87
51289;BME280;37372;52.294;5.152;2023-03-15T04:31:41;101475.66;;;-0.07;88.99
51289;BME280;37372;52.294;5.152;2023-03-15T04:34:08;101480.94;;;-0.15;88.57
51289;BME280;37372;52.294;5.152;2023-03-15T04:36:47;101484.78;;;-0.18;88.85
51289;BME280;37372;52.294;5.152;2023-03-15T04:39:13;101492.88;;;-0.18;89.19
51289;BME280;37372;52.294;5.152;2023-03-15T04:41:40;101493.13;;;-0.21;88.92
51289;BME280;37372;52.294;5.152;2023-03-15T04:44:06;101506.19;;;-0.26;88.82
51289;BME280;37372;52.294;5.152;2023-03-15T04:46:39;101514.59;;;-0.39;88.44
51289;BME280;37372;52.294;5.152;2023-03-15T04:49:05;101513.59;;;-0.47;88.09
51289;BME280;37372;52.294;5.152;2023-03-15T04:51:41;101511.19;;;-0.41;89.37
51289;BME280;37372;52.294;5.152;2023-03-15T04:54:08;101518.28;;;-0.30;89.57
51289;BME280;37372;52.294;5.152;2023-03-15T04:56:40;101519.81;;;-0.18;89.70
51289;BME280;37372;52.294;5.152;2023-03-15T04:59:07;101528.72;;;0.02;89.97
51289;BME280;37372;52.294;5.152;2023-03-15T05:01:46;101535.94;;;0.11;89.10
51289;BME280;37372;52.294;5.152;2023-03-15T05:04:14;101533.66;;;0.16;88.78
51289;BME280;37372;52.294;5.152;2023-03-15T05:06:47;101541.16;;;0.22;88.44
51289;BME280;37372;52.294;5.152;2023-03-15T05:09:12;101551.38;;;0.29;88.17
51289;BME280;37372;52.294;5.152;2023-03-15T05:11:43;101553.66;;;0.33;88.16
51289;BME280;37372;52.294;5.152;2023-03-15T05:14:12;101554.34;;;0.35;87.61
51289;BME280;37372;52.294;5.152;2023-03-15T05:16:49;101565.69;;;0.39;87.66
51289;BME280;37372;52.294;5.152;2023-03-15T05:19:19;101568.66;;;0.45;87.76
51289;BME280;37372;52.294;5.152;2023-03-15T05:21:52;101576.56;;;0.57;88.05
51289;BME280;37372;52.294;5.152;2023-03-15T05:24:22;101573.84;;;0.66;88.21
51289;BME280;37372;52.294;5.152;2023-03-15T05:26:51;101569.38;;;0.75;88.11
51289;BME280;37372;52.294;5.152;2023-03-15T05:29:22;101580.88;;;0.77;86.99
51289;BME280;37372;52.294;5.152;2023-03-15T05:31:53;101578.81;;;0.98;86.73
51289;BME280;37372;52.294;5.152;2023-03-15T05:34:18;101580.78;;;0.96;86.78
51289;BME280;37372;52.294;5.152;2023-03-15T05:36:52;101583.19;;;0.99;86.48
51289;BME280;37372;52.294;5.152;2023-03-15T05:39:19;101580.66;;;0.98;86.92
51289;BME280;37372;52.294;5.152;2023-03-15T05:41:52;101577.78;;;0.99;86.50
51289;BME280;37372;52.294;5.152;2023-03-15T05:44:18;101579.94;;;0.96;86.09
51289;BME280;37372;52.294;5.152;2023-03-15T05:46:53;101581.09;;;0.93;86.52
51289;BME280;37372;52.294;5.152;2023-03-15T05:49:19;101580.09;;;0.94;87.24
51289;BME280;37372;52.294;5.152;2023-03-15T05:52:00;101588.34;;;0.93;87.02
51289;BME280;37372;52.294;5.152;2023-03-15T05:54:27;101583.38;;;0.88;87.09
51289;BME280;37372;52.294;5.152;2023-03-15T05:56:54;101584.56;;;0.86;87.18
51289;BME280;37372;52.294;5.152;2023-03-15T05:59:21;101598.34;;;0.82;87.30
51289;BME280;37372;52.294;5.152;2023-03-15T06:01:53;101596.19;;;0.86;87.18
51289;BME280;37372;52.294;5.152;2023-03-15T06:04:20;101605.59;;;0.82;87.11
51289;BME280;37372;52.294;5.152;2023-03-15T06:06:57;101604.19;;;0.78;87.15
51289;BME280;37372;52.294;5.152;2023-03-15T06:09:23;101616.13;;;0.75;87.31
51289;BME280;37372;52.294;5.152;2023-03-15T06:11:55;101613.44;;;0.75;87.85
51289;BME280;37372;52.294;5.152;2023-03-15T06:14:23;101617.72;;;0.68;87.63
51289;BME280;37372;52.294;5.152;2023-03-15T06:16:57;101624.56;;;0.63;87.85
51289;BME280;37372;52.294;5.152;2023-03-15T06:19:23;101629.41;;;0.59;88.20
51289;BME280;37372;52.294;5.152;2023-03-15T06:22:01;101635.25;;;0.54;88.36
51289;BME280;37372;52.294;5.152;2023-03-15T06:24:27;101633.72;;;0.52;88.68
51289;BME280;37372;52.294;5.152;2023-03-15T06:27:01;101641.81;;;0.52;88.78
51289;BME280;37372;52.294;5.152;2023-03-15T06:29:27;101638.38;;;0.50;88.76
51289;BME280;37372;52.294;5.152;2023-03-15T06:32:01;101655.72;;;0.47;88.82
51289;BME280;37372;52.294;5.152;2023-03-15T06:34:27;101659.72;;;0.43;88.78
51289;BME280;37372;52.294;5.152;2023-03-15T06:37:03;101664.94;;;0.45;88.71
51289;BME280;37372;52.294;5.152;2023-03-15T06:39:29;101674.34;;;0.41;88.92
51289;BME280;37372;52.294;5.152;2023-03-15T06:42:03;101664.84;;;0.37;88.76
51289;BME280;37372;52.294;5.152;2023-03-15T06:44:35;101670.81;;;0.40;89.22
51289;BME280;37372;52.294;5.152;2023-03-15T06:47:06;101674.91;;;0.44;89.16
51289;BME280;37372;52.294;5.152;2023-03-15T06:49:33;101669.22;;;0.47;89.26
51289;BME280;37372;52.294;5.152;2023-03-15T06:52:08;101676.16;;;0.50;89.22
51289;BME280;37372;52.294;5.152;2023-03-15T06:54:34;101677.44;;;0.56;89.21
51289;BME280;37372;52.294;5.152;2023-03-15T06:57:08;101682.41;;;0.60;89.29
51289;BME280;37372;52.294;5.152;2023-03-15T06:59:33;101684.81;;;0.63;89.18
51289;BME280;37372;52.294;5.152;2023-03-15T07:02:14;101692.31;;;0.69;89.30
51289;BME280;37372;52.294;5.152;2023-03-15T07:04:41;101699.16;;;0.73;89.07
51289;BME280;37372;52.294;5.152;2023-03-15T07:07:11;101701.44;;;0.78;88.89
51289;BME280;37372;52.294;5.152;2023-03-15T07:09:38;101703.97;;;0.79;88.80
51289;BME280;37372;52.294;5.152;2023-03-15T07:12:09;101700.97;;;0.82;88.74
51289;BME280;37372;52.294;5.152;2023-03-15T07:14:36;101705.94;;;0.87;88.83
51289;BME280;37372;52.294;5.152;2023-03-15T07:17:09;101705.34;;;0.93;88.73
51289;BME280;37372;52.294;5.152;2023-03-15T07:19:34;101712.19;;;0.97;88.55
51289;BME280;37372;52.294;5.152;2023-03-15T07:22:18;101718.13;;;1.01;88.36
51289;BME280;37372;52.294;5.152;2023-03-15T07:24:45;101718.53;;;1.06;88.41
51289;BME280;37372;52.294;5.152;2023-03-15T07:27:15;101719.94;;;1.10;88.26
51289;BME280;37372;52.294;5.152;2023-03-15T07:29:41;101724.19;;;1.13;88.09
51289;BME280;37372;52.294;5.152;2023-03-15T07:32:12;101730.16;;;1.16;87.88
51289;BME280;37372;52.294;5.152;2023-03-15T07:34:46;101727.31;;;1.18;87.27
51289;BME280;37372;52.294;5.152;2023-03-15T07:37:15;101728.59;;;1.23;87.22
51289;BME280;37372;52.294;5.152;2023-03-15T07:39:51;101737.06;;;1.28;87.54
51289;BME280;37372;52.294;5.152;2023-03-15T07:42:19;101745.31;;;1.37;87.26
51289;BME280;37372;52.294;5.152;2023-03-15T07:44:45;101746.16;;;1.37;86.79
51289;BME280;37372;52.294;5.152;2023-03-15T07:47:15;101754.13;;;1.39;86.43
51289;BME280;37372;52.294;5.152;2023-03-15T07:49:41;101746.69;;;1.41;86.09
51289;BME280;37372;52.294;5.152;2023-03-15T07:52:11;101753.19;;;1.48;85.78
51289;BME280;37372;52.294;5.152;2023-03-15T07:54:53;101761.03;;;1.51;85.17
51289;BME280;37372;52.294;5.152;2023-03-15T07:57:24;101759.69;;;1.65;85.88
51289;BME280;37372;52.294;5.152;2023-03-15T07:59:50;101771.06;;;1.68;85.30
51289;BME280;37372;52.294;5.152;2023-03-15T08:02:46;101769.59;;;1.74;84.95
51289;BME280;37372;52.294;5.152;2023-03-15T08:05:11;101781.13;;;1.76;84.73
51289;BME280;37372;52.294;5.152;2023-03-15T08:07:41;101775.66;;;1.85;84.98
51289;BME280;37372;52.294;5.152;2023-03-15T08:10:08;101783.75;;;1.85;85.13
51289;BME280;37372;52.294;5.152;2023-03-15T08:12:36;101785.19;;;1.89;85.34
51289;BME280;37372;52.294;5.152;2023-03-15T08:15:05;101791.28;;;1.92;84.72
51289;BME280;37372;52.294;5.152;2023-03-15T08:17:30;101793.28;;;1.89;84.62
51289;BME280;37372;52.294;5.152;2023-03-15T08:19:57;101797.53;;;1.92;84.60
51289;BME280;37372;52.294;5.152;2023-03-15T08:22:23;101799.66;;;1.98;84.54
51289;BME280;37372;52.294;5.152;2023-03-15T08:24:49;101801.75;;;2.04;84.58
51289;BME280;37372;52.294;5.152;2023-03-15T08:27:24;101809.41;;;2.09;84.37
51289;BME280;37372;52.294;5.152;2023-03-15T08:29:54;101809.81;;;2.14;84.08
51289;BME280;37372;52.294;5.152;2023-03-15T08:32:22;101801.38;;;2.17;83.13
51289;BME280;37372;52.294;5.152;2023-03-15T08:34:48;101806.88;;;2.25;83.49
51289;BME280;37372;52.294;5.152;2023-03-15T08:37:32;101810.38;;;2.35;83.32
51289;BME280;37372;52.294;5.152;2023-03-15T08:39:57;101812.78;;;2.38;83.25
51289;BME280;37372;52.294;5.152;2023-03-15T08:42:28;101813.41;;;2.50;82.75
51289;BME280;37372;52.294;5.152;2023-03-15T08:44:55;101816.25;;;2.49;80.62
51289;BME280;37372;52.294;5.152;2023-03-15T08:47:34;101822.59;;;2.57;81.52
51289;BME280;37372;52.294;5.152;2023-03-15T08:50:15;101824.00;;;2.61;80.81
51289;BME280;37372;52.294;5.152;2023-03-15T08:52:48;101818.59;;;2.61;81.29
51289;BME280;37372;52.294;5.152;2023-03-15T08:55:20;101825.81;;;2.70;80.33
51289;BME280;37372;52.294;5.152;2023-03-15T08:57:47;101819.59;;;2.78;80.98
51289;BME280;37372;52.294;5.152;2023-03-15T09:00:27;101816.41;;;2.83;79.47
51289;BME280;37372;52.294;5.152;2023-03-15T09:02:53;101813.84;;;2.81;79.71
51289;BME280;37372;52.294;5.152;2023-03-15T09:05:24;101815.31;;;2.93;78.72
51289;BME280;37372;52.294;5.152;2023-03-15T09:07:50;101825.16;;;2.94;79.57
51289;BME280;37372;52.294;5.152;2023-03-15T09:10:30;101820.50;;;3.05;80.66
51289;BME280;37372;52.294;5.152;2023-03-15T09:12:55;101819.78;;;3.03;78.51
51289;BME280;37372;52.294;5.152;2023-03-15T09:15:26;101821.22;;;3.15;75.28
51289;BME280;37372;52.294;5.152;2023-03-15T09:17:53;101825.97;;;3.13;76.02
51289;BME280;37372;52.294;5.152;2023-03-15T09:20:20;101825.72;;;3.24;75.93
51289;BME280;37372;52.294;5.152;2023-03-15T09:22:56;101825.00;;;3.22;75.46
51289;BME280;37372;52.294;5.152;2023-03-15T09:25:37;101822.16;;;3.23;74.63
51289;BME280;37372;52.294;5.152;2023-03-15T09:28:06;101817.75;;;3.22;74.62
51289;BME280;37372;52.294;5.152;2023-03-15T09:30:36;101813.91;;;3.33;73.45
51289;BME280;37372;52.294;5.152;2023-03-15T09:33:07;101824.44;;;3.36;73.37
51289;BME280;37372;52.294;5.152;2023-03-15T09:35:38;101814.50;;;3.45;73.15
51289;BME280;37372;52.294;5.152;2023-03-15T09:38:03;101826.19;;;3.45;73.16
51289;BME280;37372;52.294;5.152;2023-03-15T09:40:31;101830.59;;;3.46;73.72
51289;BME280;37372;52.294;5.152;2023-03-15T09:43:01;101835.00;;;3.47;73.27
51289;BME280;37372;52.294;5.152;2023-03-15T09:54:23;101823.41;;;3.63;68.15
51289;BME280;37372;52.294;5.152;2023-03-15T09:57:02;101821.59;;;3.72;68.59
51289;BME280;37372;52.294;5.152;2023-03-15T09:59:33;101823.25;;;3.65;69.81
51289;BME280;37372;52.294;5.152;2023-03-15T10:02:03;101819.41;;;3.75;69.53
51289;BME280;37372;52.294;5.152;2023-03-15T10:04:42;101821.84;;;3.87;68.85
51289;BME280;37372;52.294;5.152;2023-03-15T10:10:21;101819.38;;;4.10;68.09
51289;BME280;37372;52.294;5.152;2023-03-15T10:12:56;101811.22;;;4.10;66.52
51289;BME280;37372;52.294;5.152;2023-03-15T10:15:47;101810.72;;;4.06;68.45
51289;BME280;37372;52.294;5.152;2023-03-15T10:23:53;101819.44;;;4.34;66.39
51289;BME280;37372;52.294;5.152;2023-03-15T10:26:24;101835.88;;;4.24;64.88
51289;BME280;37372;52.294;5.152;2023-03-15T10:28:53;101843.16;;;4.24;64.27
51289;BME280;37372;52.294;5.152;2023-03-15T10:31:33;101839.13;;;4.36;61.46
51289;BME280;37372;52.294;5.152;2023-03-15T10:34:04;101842.00;;;4.26;62.37
51289;BME280;37372;52.294;5.152;2023-03-15T10:36:29;101847.63;;;4.33;63.74
51289;BME280;37372;52.294;5.152;2023-03-15T10:38:58;101858.16;;;4.36;62.78
51289;BME280;37372;52.294;5.152;2023-03-15T10:41:42;101856.06;;;4.22;62.19
51289;BME280;37372;52.294;5.152;2023-03-15T10:44:18;101866.84;;;4.40;63.03
51289;BME280;37372;52.294;5.152;2023-03-15T10:47:17;101863.78;;;4.43;63.87
51289;BME280;37372;52.294;5.152;2023-03-15T10:49:44;101880.31;;;4.57;63.71
51289;BME280;37372;52.294;5.152;2023-03-15T10:55:19;101881.16;;;4.58;63.17
51289;BME280;37372;52.294;5.152;2023-03-15T10:58:13;101877.25;;;4.69;62.24
51289;BME280;37372;52.294;5.152;2023-03-15T11:00:51;101877.44;;;4.75;62.20
51289;BME280;37372;52.294;5.152;2023-03-15T11:03:29;101887.13;;;4.78;60.55
51289;BME280;37372;52.294;5.152;2023-03-15T11:05:57;101890.19;;;4.75;59.58
51289;BME280;37372;52.294;5.152;2023-03-15T11:08:38;101900.38;;;4.81;58.87
51289;BME280;37372;52.294;5.152;2023-03-15T11:11:04;101906.16;;;4.86;55.94
51289;BME280;37372;52.294;5.152;2023-03-15T11:13:41;101895.63;;;4.83;59.28
51289;BME280;37372;52.294;5.152;2023-03-15T11:21:19;101908.53;;;4.89;58.81
51289;BME280;37372;52.294;5.152;2023-03-15T11:23:49;101910.22;;;4.82;58.62
51289;BME280;37372;52.294;5.152;2023-03-15T11:26:21;101897.16;;;5.02;57.85
51289;BME280;37372;52.294;5.152;2023-03-15T11:29:04;101899.03;;;5.01;58.60
51289;BME280;37372;52.294;5.152;2023-03-15T11:31:36;101897.69;;;5.05;59.23
51289;BME280;37372;52.294;5.152;2023-03-15T11:36:57;101902.13;;;5.23;57.16
51289;BME280;37372;52.294;5.152;2023-03-15T11:40:01;101898.41;;;5.15;56.92
51289;BME280;37372;52.294;5.152;2023-03-15T11:45:35;101900.09;;;5.16;57.79
51289;BME280;37372;52.294;5.152;2023-03-15T11:48:33;101897.53;;;5.23;56.50
51289;BME280;37372;52.294;5.152;2023-03-15T11:51:02;101893.44;;;5.27;56.70
51289;BME280;37372;52.294;5.152;2023-03-15T11:53:38;101893.59;;;5.34;55.91
51289;BME280;37372;52.294;5.152;2023-03-15T11:56:26;101906.88;;;5.45;56.37
51289;BME280;37372;52.294;5.152;2023-03-15T11:59:29;101905.19;;;5.36;56.77
51289;BME280;37372;52.294;5.152;2023-03-15T12:02:04;101901.56;;;5.60;54.92
51289;BME280;37372;52.294;5.152;2023-03-15T12:05:39;101901.25;;;5.63;54.99
51289;BME280;37372;52.294;5.152;2023-03-15T12:14:28;101900.56;;;5.53;55.59
51289;BME280;37372;52.294;5.152;2023-03-15T12:20:15;101914.00;;;5.70;54.91
51289;BME280;37372;52.294;5.152;2023-03-15T12:31:47;101903.22;;;5.85;54.50
51289;BME280;37372;52.294;5.152;2023-03-15T12:34:32;101907.53;;;5.80;55.34
51289;BME280;37372;52.294;5.152;2023-03-15T12:51:09;101905.47;;;5.82;53.42
51289;BME280;37372;52.294;5.152;2023-03-15T12:53:46;101899.00;;;5.99;50.81
51289;BME280;37372;52.294;5.152;2023-03-15T12:56:47;101902.22;;;6.03;49.63
51289;BME280;37372;52.294;5.152;2023-03-15T12:59:39;101897.47;;;5.96;51.21
51289;BME280;37372;52.294;5.152;2023-03-15T13:11:16;101878.38;;;5.96;51.48
51289;BME280;37372;52.294;5.152;2023-03-15T13:13:54;101874.78;;;6.04;49.22
51289;BME280;37372;52.294;5.152;2023-03-15T13:19:39;101880.94;;;6.06;49.46
51289;BME280;37372;52.294;5.152;2023-03-15T13:22:24;101879.81;;;6.23;48.67
51289;BME280;37372;52.294;5.152;2023-03-15T13:28:32;101881.22;;;6.19;48.50
51289;BME280;37372;52.294;5.152;2023-03-15T13:31:23;101875.84;;;6.34;48.84
51289;BME280;37372;52.294;5.152;2023-03-15T13:33:51;101889.63;;;6.41;48.18
51289;BME280;37372;52.294;5.152;2023-03-15T13:39:34;101890.28;;;6.43;49.01
51289;BME280;37372;52.294;5.152;2023-03-15T13:42:04;101887.41;;;6.44;49.60
51289;BME280;37372;52.294;5.152;2023-03-15T13:44:32;101888.72;;;6.48;50.41
51289;BME280;37372;52.294;5.152;2023-03-15T13:46:58;101887.03;;;6.47;48.76
51289;BME280;37372;52.294;5.152;2023-03-15T13:49:32;101896.72;;;6.50;48.65
51289;BME280;37372;52.294;5.152;2023-03-15T13:51:58;101886.97;;;6.56;49.72
51289;BME280;37372;52.294;5.152;2023-03-15T13:54:30;101898.25;;;6.53;49.00
51289;BME280;37372;52.294;5.152;2023-03-15T13:57:12;101897.28;;;6.45;48.99
51289;BME280;37372;52.294;5.152;2023-03-15T13:59:52;101898.44;;;6.51;47.31
51289;BME280;37372;52.294;5.152;2023-03-15T14:02:43;101902.81;;;6.60;47.72
51289;BME280;37372;52.294;5.152;2023-03-15T14:05:11;101895.22;;;6.47;47.72
51289;BME280;37372;52.294;5.152;2023-03-15T14:07:46;101901.13;;;6.59;49.01
51289;BME280;37372;52.294;5.152;2023-03-15T14:10:29;101892.69;;;6.69;47.10
51289;BME280;37372;52.294;5.152;2023-03-15T14:12:58;101899.69;;;6.71;48.67
51289;BME280;37372;52.294;5.152;2023-03-15T14:16:11;101890.22;;;6.59;48.55
51289;BME280;37372;52.294;5.152;2023-03-15T14:18:39;101897.16;;;6.70;48.40
51289;BME280;37372;52.294;5.152;2023-03-15T14:21:17;101898.00;;;6.70;48.49
51289;BME280;37372;52.294;5.152;2023-03-15T14:23:47;101896.78;;;6.73;48.53
51289;BME280;37372;52.294;5.152;2023-03-15T14:26:39;101900.34;;;6.73;47.52
51289;BME280;37372;52.294;5.152;2023-03-15T14:29:31;101901.25;;;6.66;47.76
51289;BME280;37372;52.294;5.152;2023-03-15T14:35:06;101895.22;;;6.78;46.55
51289;BME280;37372;52.294;5.152;2023-03-15T14:37:37;101889.56;;;6.80;47.83
51289;BME280;37372;52.294;5.152;2023-03-15T14:40:19;101883.06;;;6.81;45.01
51289;BME280;37372;52.294;5.152;2023-03-15T14:42:48;101881.56;;;6.78;46.32
51289;BME280;37372;52.294;5.152;2023-03-15T14:45:16;101879.63;;;6.87;46.83
51289;BME280;37372;52.294;5.152;2023-03-15T14:47:48;101881.91;;;6.75;47.19
51289;BME280;37372;52.294;5.152;2023-03-15T14:50:18;101880.22;;;6.74;47.82
51289;BME280;37372;52.294;5.152;2023-03-15T14:52:45;101879.81;;;6.86;47.32
51289;BME280;37372;52.294;5.152;2023-03-15T14:55:17;101877.44;;;6.83;47.05
51289;BME280;37372;52.294;5.152;2023-03-15T14:57:47;101880.97;;;6.91;45.73
51289;BME280;37372;52.294;5.152;2023-03-15T15:00:18;101885.28;;;6.86;46.13
51289;BME280;37372;52.294;5.152;2023-03-15T15:02:50;101879.03;;;6.77;46.07
51289;BME280;37372;52.294;5.152;2023-03-15T15:05:28;101882.81;;;6.68;46.62